Latest Weather Observations for Rhyll

IDV60801

Issued at 1:02 pm EDT Friday 18 October 2019 (issued every 10 minutes, with the page automatically refreshed every 10 minutes)

About weather observations | Map of weather stations | Latest weather observations for VIC | Other Formats
Station Details ID: 086373 Name: RHYLL Lat: -38.46 Lon: 145.31 Height: 13.4 m
Data from the previous 72 hours. | See also: Recent months at Rhyll
Date/Time
EDT
Temp
°C
App
Temp
°C
Dew
Point
°C
Rel
Hum
%
Delta-T
°C
Wind Press
QNH
hPa
Press
MSL
hPa
Rain since
9am
mm
Dir  Spd
km/h
Gust
km/h
Spd
kts
Gust
kts
18/01:00pm 15.8 10.2 7.1 56 4.3 NNW 26 44 14 24 1011.5 1011.5 0.0
18/12:33pm 14.9 8.7 6.2 56 4.2 NNW 28 50 15 27 1012.0 1012.0 0.0
18/12:30pm 15.4 10.1 6.9 57 4.2 NNW 24 50 13 27 1012.1 1012.1 0.0
18/12:00pm 14.2 8.0 6.3 59 3.8 NNW 28 43 15 23 1012.7 1012.7 0.0
18/11:30am 13.6 7.3 5.7 59 3.7 NNW 28 44 15 24 1013.3 1013.3 0.0
18/11:00am 13.5 6.4 5.7 59 3.7 NNW 32 44 17 24 1013.8 1013.8 0.0
18/10:30am 13.3 6.3 5.9 61 3.5 NNW 32 46 17 25 1013.8 1013.8 0.0
18/10:00am 12.4 5.6 5.1 61 3.4 NNW 30 43 16 23 1014.0 1014.0 0.0
18/09:30am 12.0 4.6 5.0 62 3.2 N 33 43 18 23 1014.2 1014.2 0.0
18/09:00am 12.0 5.6 5.4 64 3.1 NNW 28 39 15 21 1014.5 1014.5 0.6
18/08:30am 11.6 5.2 5.3 65 2.9 NNW 28 39 15 21 1014.6 1014.6 0.6
18/08:00am 11.5 6.3 5.6 67 2.7 NNW 22 33 12 18 1014.8 1014.8 0.6
18/07:30am 10.9 6.8 4.6 65 2.8 NNW 15 28 8 15 1014.9 1014.9 0.6
18/07:00am 10.8 7.0 4.0 63 3.0 NW 13 24 7 13 1014.8 1014.8 0.6
18/06:30am 10.8 7.4 3.8 62 3.1 NW 11 22 6 12 1014.7 1014.7 0.6
18/06:00am 10.6 7.1 3.6 62 3.1 W 11 22 6 12 1014.8 1014.8 0.6
18/05:30am 10.9 7.4 3.5 60 3.3 WNW 11 22 6 12 1014.8 1014.8 0.6
18/05:00am 10.7 7.2 3.3 60 3.2 WNW 11 20 6 11 1014.8 1014.8 0.6
18/04:30am 10.6 7.0 2.9 59 3.3 WNW 11 24 6 13 1014.7 1014.7 0.6
18/04:00am 10.4 7.3 3.7 63 2.9 WNW 9 20 5 11 1014.8 1014.8 0.6
18/03:30am 10.3 6.9 4.0 65 2.8 WNW 11 19 6 10 1015.1 1015.1 0.6
18/03:00am 10.3 6.5 4.0 65 2.8 W 13 20 7 11 1015.1 1015.1 0.6
18/02:30am 10.3 7.4 4.9 69 2.4 WNW 9 17 5 9 1015.1 1015.1 0.6
18/02:00am 10.4 7.2 5.0 69 2.4 WNW 11 17 6 9 1015.2 1015.2 0.6
18/01:30am 10.7 7.7 6.1 73 2.1 WNW 11 22 6 12 1015.5 1015.5 0.6
18/01:00am 10.6 8.2 7.1 79 1.7 W 9 19 5 10 1015.7 1015.7 0.6
18/12:30am 10.8 8.9 7.7 81 1.5 WNW 7 15 4 8 1015.9 1015.9 0.6
18/12:00am 11.2 9.2 7.3 77 1.9 W 7 17 4 9 1015.9 1015.9 0.6
 
Date/Time
EDT
Temp
°C
App
Temp
°C
Dew
Point
°C
Rel
Hum
%
Delta-T
°C
Wind Press
QNH
hPa
Press
MSL
hPa
Rain since
9am
mm
Dir  Spd
km/h
Gust
km/h
Spd
kts
Gust
kts
17/11:30pm 11.8 8.7 7.1 73 2.3 W 13 24 7 13 1015.9 1015.9 0.6
17/11:00pm 11.3 9.4 7.6 78 1.8 W 7 24 4 13 1015.9 1015.9 0.6
17/10:30pm 11.2 8.5 7.3 77 1.9 W 11 20 6 11 1015.9 1015.9 0.6
17/10:00pm 11.9 8.1 7.4 74 2.2 W 17 39 9 21 1015.6 1015.6 0.6
17/09:30pm 11.9 9.2 7.4 74 2.2 WSW 11 19 6 10 1015.2 1015.2 0.6
17/09:00pm 12.0 9.0 7.5 74 2.2 W 13 26 7 14 1014.7 1014.7 0.6
17/08:30pm 12.0 9.3 7.5 74 2.2 WSW 11 20 6 11 1014.2 1014.2 0.6
17/08:00pm 11.6 8.4 6.9 73 2.2 WSW 13 24 7 13 1013.6 1013.6 0.6
17/07:30pm 12.1 9.1 7.6 74 2.2 WSW 13 22 7 12 1013.0 1013.0 0.6
17/07:00pm 12.4 8.5 7.1 70 2.6 WSW 17 32 9 17 1012.4 1012.4 0.6
17/06:30pm 12.7 8.4 7.2 69 2.7 WSW 19 37 10 20 1011.7 1011.7 0.6
17/06:00pm 12.4 8.1 7.7 73 2.3 WSW 20 41 11 22 1011.2 1011.2 0.6
17/05:30pm 13.0 9.8 8.3 73 2.3 WSW 15 28 8 15 1010.5 1010.5 0.6
17/05:00pm 13.0 8.7 7.7 70 2.6 W 20 35 11 19 1009.9 1009.9 0.6
17/04:30pm 12.4 8.9 8.7 78 1.8 W 17 33 9 18 1009.6 1009.6 0.6
17/04:00pm 14.0 9.4 6.6 61 3.6 W 20 37 11 20 1009.0 1009.0 0.4
17/03:30pm 11.7 7.4 6.8 72 2.3 W 19 32 10 17 1009.0 1009.0 0.4
17/03:00pm 12.1 7.6 6.8 70 2.5 W 20 32 11 17 1008.9 1008.9 0.4
17/02:30pm 13.2 8.5 6.1 62 3.4 W 20 37 11 20 1008.9 1008.9 0.4
17/02:00pm 13.4 9.0 6.7 64 3.2 W 19 39 10 21 1008.7 1008.7 0.4
17/01:30pm 12.6 8.0 6.4 66 2.9 WNW 20 43 11 23 1008.4 1008.4 0.4
17/01:00pm 11.2 6.8 6.5 73 2.2 W 19 39 10 21 1008.3 1008.3 0.4
17/12:30pm 13.4 8.9 6.3 62 3.4 W 19 32 10 17 1008.4 1008.4 0.0
17/12:00pm 12.8 8.2 5.5 61 3.4 WNW 19 35 10 19 1008.3 1008.3 0.0
17/11:30am 13.1 9.4 6.5 64 3.2 W 15 28 8 15 1008.2 1008.2 0.0
17/11:00am 11.7 8.4 6.4 70 2.5 WNW 13 28 7 15 1008.0 1008.0 0.0
17/10:30am 11.3 7.7 6.6 73 2.2 WNW 15 32 8 17 1008.1 1008.1 0.0
17/10:00am 10.1 5.6 6.1 76 1.9 WNW 19 37 10 20 1008.0 1008.0 0.0
17/09:30am 9.4 4.8 5.6 77 1.7 WNW 19 32 10 17 1007.9 1007.9 0.0
17/09:00am 10.4 6.5 5.4 71 2.3 WNW 15 28 8 15 1007.4 1007.4 13.0
17/08:30am 10.4 6.1 5.2 70 2.4 WNW 17 26 9 14 1007.4 1007.4 13.0
17/08:00am 10.4 6.5 5.4 71 2.3 WNW 15 30 8 16 1007.2 1007.2 13.0
17/07:30am 9.5 5.2 5.3 75 1.9 W 17 33 9 18 1006.8 1006.8 13.0
17/07:00am 9.3 5.9 5.7 78 1.6 W 13 24 7 13 1006.5 1006.5 13.0
17/06:30am 9.2 4.9 5.4 77 1.7 W 17 30 9 16 1006.3 1006.3 13.0
17/06:00am 9.1 5.8 6.4 83 1.3 W 13 26 7 14 1006.1 1006.1 13.0
17/05:30am 8.6 6.1 6.7 88 0.9 W 9 19 5 10 1005.8 1005.8 13.0
17/05:00am 8.3 5.9 6.8 90 0.7 W 9 20 5 11 1005.8 1005.8 13.0
17/04:30am 7.8 4.4 5.9 88 0.9 W 13 24 7 13 1006.3 1006.3 11.0
17/04:00am 11.9 10.6 10.1 89 0.9 NW 7 13 4 7 1005.5 1005.5 1.2
17/03:30am 12.2 10.3 10.6 90 0.8 N 11 17 6 9 1005.6 1005.6 0.4
17/03:00am 11.6 10.9 10.2 91 0.7 NNW 4 6 2 3 1006.2 1006.2 0.4
17/02:30am 11.8 12.0 10.4 91 0.7 CALM 0 2 0 1 1006.2 1006.2 0.4
17/02:00am 12.3 12.2 10.9 91 0.7 NNE 2 7 1 4 1006.7 1006.7 0.4
17/01:30am 12.0 11.8 10.4 90 0.8 ENE 2 4 1 2 1007.5 1007.5 0.4
17/01:00am 12.0 11.3 10.2 89 0.9 WSW 4 9 2 5 1007.9 1007.9 0.2
17/12:30am 12.5 11.1 10.9 90 0.8 NE 9 11 5 6 1008.0 1008.0 0.2
17/12:00am 12.1 11.5 10.5 90 0.8 NE 4 6 2 3 1008.4 1008.4 0.2
 
Date/Time
EDT
Temp
°C
App
Temp
°C
Dew
Point
°C
Rel
Hum
%
Delta-T
°C
Wind Press
QNH
hPa
Press
MSL
hPa
Rain since
9am
mm
Dir  Spd
km/h
Gust
km/h
Spd
kts
Gust
kts
16/11:30pm 11.6 10.9 10.0 90 0.8 NNE 4 7 2 4 1008.6 1008.6 0.2
16/11:00pm 11.0 9.6 9.4 90 0.8 ENE 7 11 4 6 1008.7 1008.7 0.2
16/10:30pm 11.1 9.3 9.4 89 0.9 E 9 13 5 7 1008.9 1008.9 0.2
16/10:00pm 11.6 9.2 9.9 89 0.9 ESE 13 17 7 9 1009.1 1009.1 0.2
16/09:30pm 11.8 9.0 9.9 88 1.0 SE 15 19 8 10 1009.1 1009.1 0.2
16/09:00pm 12.1 8.4 10.0 87 1.1 ESE 20 24 11 13 1009.0 1009.0 0.2
16/08:30pm 12.6 9.5 10.3 86 1.2 SE 17 24 9 13 1009.0 1009.0 0.2
16/08:00pm 12.9 11.0 10.6 86 1.2 SE 11 19 6 10 1008.8 1008.8 0.2
16/07:30pm 13.5 10.9 10.7 83 1.5 SSE 15 22 8 12 1008.6 1008.6 0.2
16/07:00pm 13.8 12.5 10.0 78 2.0 SSW 7 13 4 7 1008.2 1008.2 0.2
16/06:30pm 14.9 13.0 10.5 75 2.3 SW 11 19 6 10 1008.0 1008.0 0.2
16/06:00pm 15.1 13.3 10.7 75 2.3 SW 11 17 6 9 1007.8 1007.8 0.2
16/05:30pm 15.7 13.2 10.9 73 2.6 SW 15 24 8 13 1007.7 1007.7 0.2
16/05:00pm 16.0 14.4 11.4 74 2.5 SSW 11 26 6 14 1007.3 1007.3 0.2
16/04:30pm 17.7 16.4 12.4 71 2.9 SW 11 20 6 11 1007.0 1007.0 0.2
16/04:00pm 17.9 16.3 11.5 66 3.5 NNW 11 19 6 10 1006.9 1006.9 0.2
16/03:30pm 16.6 14.3 10.5 67 3.2 NNW 13 20 7 11 1007.2 1007.2 0.2
16/03:00pm 17.1 15.9 10.2 64 3.7 NW 7 17 4 9 1007.4 1007.4 0.2
16/02:30pm 17.3 14.4 11.1 67 3.3 NNW 17 26 9 14 1007.9 1007.9 0.2
16/02:00pm 17.6 15.9 11.2 66 3.5 N 11 17 6 9 1008.2 1008.2 0.2
16/01:30pm 16.9 16.1 11.6 71 2.9 N 7 11 4 6 1008.8 1008.8 0.2
16/01:00pm 15.5 14.2 11.1 75 2.4 N 9 15 5 8 1009.4 1009.4 0.2
16/12:30pm 14.9 14.7 10.3 74 2.4 NNE 2 6 1 3 1009.8 1009.8 0.2
16/12:00pm 14.7 12.9 10.7 77 2.1 NNE 11 19 6 10 1009.5 1009.5 0.2
16/11:30am 14.9 13.7 11.7 81 1.7 NE 9 17 5 9 1009.6 1009.6 0.2
16/11:00am 13.4 11.4 10.0 80 1.8 N 11 15 6 8 1010.3 1010.3 0.2
16/10:30am 13.9 13.7 10.5 80 1.8 NW 2 6 1 3 1010.5 1010.5 0.2
16/10:00am 13.2 13.1 9.5 78 1.9 CALM 0 0 0 0 1010.7 1010.7 0.0
16/09:30am 13.4 12.5 10.8 84 1.4 E 6 9 3 5 1010.4 1010.4 0.0
16/09:00am 12.9 12.0 10.6 86 1.2 ESE 6 7 3 4 1010.6 1010.6 0.4
16/08:30am 12.9 12.4 10.8 87 1.1 E 4 7 2 4 1011.0 1011.0 0.4
16/08:00am 12.4 11.7 10.1 86 1.2 ENE 4 7 2 4 1011.6 1011.6 0.4
16/07:30am 12.7 10.8 10.4 86 1.2 ESE 11 15 6 8 1011.4 1011.4 0.2
16/07:00am 12.6 11.3 9.8 83 1.4 ESE 7 9 4 5 1011.8 1011.8 0.0
16/06:30am 12.7 10.9 9.5 81 1.6 E 9 11 5 6 1011.7 1011.7 0.0
16/06:00am 12.7 11.0 9.7 82 1.5 SE 9 13 5 7 1011.7 1011.7 0.0
16/05:30am 12.5 10.4 9.9 84 1.3 E 11 15 6 8 1011.4 1011.4 0.0
16/05:00am 12.8 10.1 10.2 84 1.3 E 15 19 8 10 1011.1 1011.1 0.0
16/04:30am 12.7 10.6 9.9 83 1.4 ESE 11 15 6 8 1011.7 1011.7 0.0
16/04:00am 12.4 11.2 9.4 82 1.5 SE 6 7 3 4 1012.5 1012.5 0.0
16/03:30am 12.7 11.1 10.2 85 1.3 E 9 13 5 7 1012.3 1012.3 0.0
16/03:00am 12.3 11.9 9.7 84 1.3 SSW 2 4 1 2 1012.8 1012.8 0.0
16/02:30am 12.2 11.0 9.6 84 1.3 SW 6 7 3 4 1013.0 1013.0 0.0
16/02:00am 12.2 12.1 9.4 83 1.4 CALM 0 2 0 1 1013.3 1013.3 0.0
16/01:30am 12.5 11.4 9.9 84 1.3 WSW 6 7 3 4 1013.8 1013.8 0.0
16/01:00am 12.5 12.5 9.9 84 1.3 CALM 0 0 0 0 1013.6 1013.6 0.0
16/12:30am 12.8 12.9 10.0 83 1.4 CALM 0 0 0 0 1013.8 1013.8 0.0
16/12:00am 12.7 12.7 9.9 83 1.4 CALM 0 0 0 0 1013.9 1013.9 0.0
 
Date/Time
EDT
Temp
°C
App
Temp
°C
Dew
Point
°C
Rel
Hum
%
Delta-T
°C
Wind Press
QNH
hPa
Press
MSL
hPa
Rain since
9am
mm
Dir  Spd
km/h
Gust
km/h
Spd
kts
Gust
kts
15/11:30pm 12.7 12.7 9.9 83 1.4 CALM 0 0 0 0 1014.3 1014.3 0.0
15/11:00pm 13.0 13.1 10.0 82 1.5 CALM 0 0 0 0 1014.5 1014.5 0.0
15/10:30pm 13.2 13.2 9.8 80 1.7 CALM 0 0 0 0 1014.7 1014.7 0.0
15/10:00pm 13.1 12.3 9.5 79 1.8 SW 4 6 2 3 1015.0 1015.0 0.0
15/09:30pm 12.9 12.4 9.2 78 1.9 SW 2 6 1 3 1014.7 1014.7 0.0
15/09:00pm 13.0 12.4 9.1 77 2.0 SSW 2 6 1 3 1014.7 1014.7 0.0
15/08:30pm 13.4 11.9 9.3 76 2.1 SW 7 13 4 7 1014.8 1014.8 0.0
15/08:00pm 13.4 12.1 9.1 75 2.2 S 6 7 3 4 1014.2 1014.2 0.0
15/07:30pm 14.0 13.4 9.0 72 2.5 SSW 2 6 1 3 1013.9 1013.9 0.0
15/07:00pm 14.2 13.9 8.8 70 2.7 CALM 0 0 0 0 1013.7 1013.7 0.0
15/06:30pm 14.4 13.8 8.8 69 2.8 WSW 2 4 1 2 1014.0 1014.0 0.0
15/06:00pm 15.4 14.2 9.5 68 3.1 SSW 6 13 3 7 1013.4 1013.4 0.0
15/05:30pm 15.9 14.0 9.1 64 3.5 SSW 9 19 5 10 1013.1 1013.1 0.0
15/05:00pm 15.4 13.5 9.1 66 3.2 SW 9 17 5 9 1013.5 1013.5 0.0
15/04:30pm 16.5 14.4 8.2 58 4.2 SSW 9 17 5 9 1013.3 1013.3 0.0
15/04:00pm 17.2 15.6 8.9 58 4.3 S 7 15 4 8 1013.1 1013.1 0.0
15/03:30pm 16.3 13.3 7.8 57 4.3 SSW 13 24 7 13 1013.5 1013.5 0.0
15/03:00pm 16.8 15.6 9.7 63 3.7 ESE 6 11 3 6 1013.8 1013.8 0.0
15/02:30pm 15.4 14.0 8.9 65 3.3 ESE 6 11 3 6 1014.1 1014.1 0.0
15/02:00pm 16.0 14.4 8.7 62 3.7 NNE 7 11 4 6 1014.1 1014.1 0.0
15/01:30pm 15.3 13.7 8.8 65 3.3 N 7 13 4 7 1014.0 1014.0 0.0

Other formats

Comma delimited format used in spreadsheet applications
http://www.bom.gov.au/fwo/IDV60801/IDV60801.94892.axf

JavaScript Object Notation format (JSON) in row-major order
http://www.bom.gov.au/fwo/IDV60801/IDV60801.94892.json

Data quality

Most of these data are generated automatically and are frequently updated. Quality checks on data are not normally performed. It is possible for incorrect values to appear. Refer to information at About Latest Weather Observations and please check the disclaimer before using these data.